sensor_id;sensor_type;location;lat;lon;timestamp;temperature;humidity
41939;DHT22;23057;48.554;14.454;2024-01-06T00:00:26;3.20;99.90
41939;DHT22;23057;48.554;14.454;2024-01-06T00:02:56;3.20;99.90
41939;DHT22;23057;48.554;14.454;2024-01-06T00:05:27;3.20;99.90
41939;DHT22;23057;48.554;14.454;2024-01-06T00:07:58;3.10;99.90
41939;DHT22;23057;48.554;14.454;2024-01-06T00:10:29;3.10;99.90
41939;DHT22;23057;48.554;14.454;2024-01-06T00:12:59;3.00;99.90
41939;DHT22;23057;48.554;14.454;2024-01-06T00:15:30;2.90;99.90
41939;DHT22;23057;48.554;14.454;2024-01-06T00:18:01;2.90;99.90
41939;DHT22;23057;48.554;14.454;2024-01-06T00:20:32;2.80;99.90
41939;DHT22;23057;48.554;14.454;2024-01-06T00:23:03;2.90;99.90
41939;DHT22;23057;48.554;14.454;2024-01-06T00:25:34;2.90;99.90
41939;DHT22;23057;48.554;14.454;2024-01-06T00:28:05;2.90;99.90
41939;DHT22;23057;48.554;14.454;2024-01-06T00:30:36;3.00;99.90
41939;DHT22;23057;48.554;14.454;2024-01-06T00:33:07;3.00;99.90
41939;DHT22;23057;48.554;14.454;2024-01-06T00:35:37;3.10;99.90
41939;DHT22;23057;48.554;14.454;2024-01-06T00:38:08;3.10;99.90
41939;DHT22;23057;48.554;14.454;2024-01-06T00:40:39;3.10;99.90
41939;DHT22;23057;48.554;14.454;2024-01-06T00:43:10;3.10;99.90
41939;DHT22;23057;48.554;14.454;2024-01-06T00:45:40;3.20;99.90
41939;DHT22;23057;48.554;14.454;2024-01-06T00:48:11;3.20;99.90
41939;DHT22;23057;48.554;14.454;2024-01-06T00:50:42;3.20;99.90
41939;DHT22;23057;48.554;14.454;2024-01-06T00:53:13;3.20;99.90
41939;DHT22;23057;48.554;14.454;2024-01-06T00:55:44;3.30;99.90
41939;DHT22;23057;48.554;14.454;2024-01-06T00:58:15;3.30;99.90
41939;DHT22;23057;48.554;14.454;2024-01-06T01:00:46;3.30;99.90
41939;DHT22;23057;48.554;14.454;2024-01-06T01:03:16;3.60;99.90
41939;DHT22;23057;48.554;14.454;2024-01-06T01:05:47;3.80;99.90
41939;DHT22;23057;48.554;14.454;2024-01-06T01:08:18;3.80;99.90
41939;DHT22;23057;48.554;14.454;2024-01-06T01:10:49;3.80;99.90
41939;DHT22;23057;48.554;14.454;2024-01-06T01:13:20;3.80;99.90
41939;DHT22;23057;48.554;14.454;2024-01-06T01:15:51;3.70;99.90
41939;DHT22;23057;48.554;14.454;2024-01-06T01:18:21;3.70;99.90
41939;DHT22;23057;48.554;14.454;2024-01-06T01:20:52;3.80;99.90
41939;DHT22;23057;48.554;14.454;2024-01-06T01:23:23;3.80;99.90
41939;DHT22;23057;48.554;14.454;2024-01-06T01:25:54;3.90;99.90
41939;DHT22;23057;48.554;14.454;2024-01-06T01:28:25;4.00;99.90
41939;DHT22;23057;48.554;14.454;2024-01-06T01:30:56;4.00;99.90
41939;DHT22;23057;48.554;14.454;2024-01-06T01:33:27;4.10;99.90
41939;DHT22;23057;48.554;14.454;2024-01-06T01:35:57;4.20;99.90
41939;DHT22;23057;48.554;14.454;2024-01-06T01:38:28;4.20;99.90
41939;DHT22;23057;48.554;14.454;2024-01-06T01:40:59;4.20;99.90
41939;DHT22;23057;48.554;14.454;2024-01-06T01:43:30;4.20;99.90
41939;DHT22;23057;48.554;14.454;2024-01-06T01:46:02;4.10;99.90
41939;DHT22;23057;48.554;14.454;2024-01-06T01:48:33;4.00;99.90
41939;DHT22;23057;48.554;14.454;2024-01-06T01:51:05;4.00;99.90
41939;DHT22;23057;48.554;14.454;2024-01-06T01:53:38;3.90;99.90
41939;DHT22;23057;48.554;14.454;2024-01-06T01:56:09;3.90;99.90
41939;DHT22;23057;48.554;14.454;2024-01-06T01:58:41;3.80;99.90
41939;DHT22;23057;48.554;14.454;2024-01-06T02:01:12;3.80;99.90
41939;DHT22;23057;48.554;14.454;2024-01-06T02:03:44;3.80;99.90
41939;DHT22;23057;48.554;14.454;2024-01-06T02:06:14;3.70;99.90
41939;DHT22;23057;48.554;14.454;2024-01-06T02:08:45;3.60;99.90
41939;DHT22;23057;48.554;14.454;2024-01-06T02:11:16;3.60;99.90
41939;DHT22;23057;48.554;14.454;2024-01-06T02:13:47;3.60;99.90
41939;DHT22;23057;48.554;14.454;2024-01-06T02:16:18;3.70;99.90
41939;DHT22;23057;48.554;14.454;2024-01-06T02:18:49;3.70;99.90
41939;DHT22;23057;48.554;14.454;2024-01-06T02:21:21;3.70;99.90
41939;DHT22;23057;48.554;14.454;2024-01-06T02:23:53;3.70;99.90
41939;DHT22;23057;48.554;14.454;2024-01-06T02:26:23;3.70;99.90
41939;DHT22;23057;48.554;14.454;2024-01-06T02:28:55;3.60;99.90
41939;DHT22;23057;48.554;14.454;2024-01-06T02:31:26;3.60;99.90
41939;DHT22;23057;48.554;14.454;2024-01-06T02:33:57;3.60;99.90
41939;DHT22;23057;48.554;14.454;2024-01-06T02:36:28;3.60;99.90
41939;DHT22;23057;48.554;14.454;2024-01-06T02:38:59;3.60;99.90
41939;DHT22;23057;48.554;14.454;2024-01-06T02:41:30;3.60;99.90
41939;DHT22;23057;48.554;14.454;2024-01-06T02:44:00;3.60;99.90
41939;DHT22;23057;48.554;14.454;2024-01-06T02:46:33;3.50;99.90
41939;DHT22;23057;48.554;14.454;2024-01-06T02:49:03;3.60;99.90
41939;DHT22;23057;48.554;14.454;2024-01-06T02:51:34;3.50;99.90
41939;DHT22;23057;48.554;14.454;2024-01-06T02:54:05;3.50;99.90
41939;DHT22;23057;48.554;14.454;2024-01-06T02:56:36;3.50;99.90
41939;DHT22;23057;48.554;14.454;2024-01-06T02:59:08;3.50;99.90
41939;DHT22;23057;48.554;14.454;2024-01-06T03:01:39;3.50;99.90
41939;DHT22;23057;48.554;14.454;2024-01-06T03:04:10;3.50;99.90
41939;DHT22;23057;48.554;14.454;2024-01-06T03:06:41;3.40;99.90
41939;DHT22;23057;48.554;14.454;2024-01-06T03:09:11;3.40;99.90
41939;DHT22;23057;48.554;14.454;2024-01-06T03:11:42;3.40;99.90
41939;DHT22;23057;48.554;14.454;2024-01-06T03:14:13;3.40;99.90
41939;DHT22;23057;48.554;14.454;2024-01-06T03:16:44;3.40;99.90
41939;DHT22;23057;48.554;14.454;2024-01-06T03:19:15;3.40;99.90
41939;DHT22;23057;48.554;14.454;2024-01-06T03:21:45;3.40;99.90
41939;DHT22;23057;48.554;14.454;2024-01-06T03:24:16;3.40;99.90
41939;DHT22;23057;48.554;14.454;2024-01-06T03:26:47;3.40;99.90
41939;DHT22;23057;48.554;14.454;2024-01-06T03:29:18;3.30;99.90
41939;DHT22;23057;48.554;14.454;2024-01-06T03:31:48;3.30;99.90
41939;DHT22;23057;48.554;14.454;2024-01-06T03:34:19;3.30;99.90
41939;DHT22;23057;48.554;14.454;2024-01-06T03:36:50;3.30;99.90
41939;DHT22;23057;48.554;14.454;2024-01-06T03:39:21;3.30;99.90
41939;DHT22;23057;48.554;14.454;2024-01-06T03:41:52;3.30;99.90
41939;DHT22;23057;48.554;14.454;2024-01-06T03:44:22;3.30;99.90
41939;DHT22;23057;48.554;14.454;2024-01-06T03:46:53;3.30;99.90
41939;DHT22;23057;48.554;14.454;2024-01-06T03:49:24;3.20;99.90
41939;DHT22;23057;48.554;14.454;2024-01-06T03:51:56;3.20;99.90
41939;DHT22;23057;48.554;14.454;2024-01-06T03:54:26;3.20;99.90
41939;DHT22;23057;48.554;14.454;2024-01-06T03:56:57;3.20;99.90
41939;DHT22;23057;48.554;14.454;2024-01-06T03:59:28;3.20;99.90
41939;DHT22;23057;48.554;14.454;2024-01-06T04:01:59;3.20;99.90
41939;DHT22;23057;48.554;14.454;2024-01-06T04:04:29;3.20;99.90
41939;DHT22;23057;48.554;14.454;2024-01-06T04:07:00;3.20;99.90
41939;DHT22;23057;48.554;14.454;2024-01-06T04:09:31;3.20;99.90
41939;DHT22;23057;48.554;14.454;2024-01-06T04:12:02;3.20;99.90
41939;DHT22;23057;48.554;14.454;2024-01-06T04:14:33;3.20;99.90
41939;DHT22;23057;48.554;14.454;2024-01-06T04:17:04;3.20;99.90
41939;DHT22;23057;48.554;14.454;2024-01-06T04:19:35;3.20;99.90
41939;DHT22;23057;48.554;14.454;2024-01-06T04:22:06;3.20;99.90
41939;DHT22;23057;48.554;14.454;2024-01-06T04:24:36;3.10;99.90
41939;DHT22;23057;48.554;14.454;2024-01-06T04:27:07;3.20;99.90
41939;DHT22;23057;48.554;14.454;2024-01-06T04:29:40;3.20;99.90
41939;DHT22;23057;48.554;14.454;2024-01-06T04:32:10;3.20;99.90
41939;DHT22;23057;48.554;14.454;2024-01-06T04:34:41;3.20;99.90
41939;DHT22;23057;48.554;14.454;2024-01-06T04:37:12;3.20;99.90
41939;DHT22;23057;48.554;14.454;2024-01-06T04:39:43;3.20;99.90
41939;DHT22;23057;48.554;14.454;2024-01-06T04:42:14;3.20;99.90
41939;DHT22;23057;48.554;14.454;2024-01-06T04:44:44;3.20;99.90
41939;DHT22;23057;48.554;14.454;2024-01-06T04:47:15;3.20;99.90
41939;DHT22;23057;48.554;14.454;2024-01-06T04:49:46;3.10;99.90
41939;DHT22;23057;48.554;14.454;2024-01-06T04:52:17;3.20;99.90
41939;DHT22;23057;48.554;14.454;2024-01-06T04:54:48;3.10;99.90
41939;DHT22;23057;48.554;14.454;2024-01-06T04:57:19;3.10;99.90
41939;DHT22;23057;48.554;14.454;2024-01-06T04:59:51;3.10;99.90
41939;DHT22;23057;48.554;14.454;2024-01-06T05:02:21;3.10;99.90
41939;DHT22;23057;48.554;14.454;2024-01-06T05:04:52;3.10;99.90
41939;DHT22;23057;48.554;14.454;2024-01-06T05:07:23;3.10;99.90
41939;DHT22;23057;48.554;14.454;2024-01-06T05:09:54;3.10;99.90
41939;DHT22;23057;48.554;14.454;2024-01-06T05:12:26;3.00;99.90
41939;DHT22;23057;48.554;14.454;2024-01-06T05:14:57;3.00;99.90
41939;DHT22;23057;48.554;14.454;2024-01-06T05:17:27;3.00;99.90
41939;DHT22;23057;48.554;14.454;2024-01-06T05:19:58;3.00;99.90
41939;DHT22;23057;48.554;14.454;2024-01-06T05:22:30;3.00;99.90
41939;DHT22;23057;48.554;14.454;2024-01-06T05:25:01;3.00;99.90
41939;DHT22;23057;48.554;14.454;2024-01-06T05:27:33;3.00;99.90
41939;DHT22;23057;48.554;14.454;2024-01-06T05:30:04;2.90;99.90
41939;DHT22;23057;48.554;14.454;2024-01-06T05:32:37;3.00;99.90
41939;DHT22;23057;48.554;14.454;2024-01-06T05:35:08;3.00;99.90
41939;DHT22;23057;48.554;14.454;2024-01-06T05:37:40;2.90;99.90
41939;DHT22;23057;48.554;14.454;2024-01-06T05:40:11;2.90;99.90
41939;DHT22;23057;48.554;14.454;2024-01-06T05:42:42;2.90;99.90
41939;DHT22;23057;48.554;14.454;2024-01-06T05:45:13;2.90;99.90
41939;DHT22;23057;48.554;14.454;2024-01-06T05:47:43;2.90;99.90
41939;DHT22;23057;48.554;14.454;2024-01-06T05:50:17;2.90;99.90
41939;DHT22;23057;48.554;14.454;2024-01-06T05:52:49;2.90;99.90
41939;DHT22;23057;48.554;14.454;2024-01-06T05:55:21;2.90;99.90
41939;DHT22;23057;48.554;14.454;2024-01-06T05:57:52;2.90;99.90
41939;DHT22;23057;48.554;14.454;2024-01-06T06:00:23;2.90;99.90
41939;DHT22;23057;48.554;14.454;2024-01-06T06:02:54;2.90;99.90
41939;DHT22;23057;48.554;14.454;2024-01-06T06:05:25;2.80;99.90
41939;DHT22;23057;48.554;14.454;2024-01-06T06:07:56;2.80;99.90
41939;DHT22;23057;48.554;14.454;2024-01-06T06:10:27;2.80;99.90
41939;DHT22;23057;48.554;14.454;2024-01-06T06:13:10;2.80;99.90
41939;DHT22;23057;48.554;14.454;2024-01-06T06:15:41;2.80;99.90
41939;DHT22;23057;48.554;14.454;2024-01-06T06:18:12;2.80;99.90
41939;DHT22;23057;48.554;14.454;2024-01-06T06:20:43;2.80;99.90
41939;DHT22;23057;48.554;14.454;2024-01-06T06:23:14;2.70;99.90
41939;DHT22;23057;48.554;14.454;2024-01-06T06:25:45;2.70;99.90
41939;DHT22;23057;48.554;14.454;2024-01-06T06:28:15;2.70;99.90
41939;DHT22;23057;48.554;14.454;2024-01-06T06:30:46;2.70;99.90
41939;DHT22;23057;48.554;14.454;2024-01-06T06:33:17;2.60;99.90
41939;DHT22;23057;48.554;14.454;2024-01-06T06:35:48;2.60;99.90
41939;DHT22;23057;48.554;14.454;2024-01-06T06:38:19;2.60;99.90
41939;DHT22;23057;48.554;14.454;2024-01-06T06:40:51;2.60;99.90
41939;DHT22;23057;48.554;14.454;2024-01-06T06:43:22;2.60;99.90
41939;DHT22;23057;48.554;14.454;2024-01-06T06:45:52;2.60;99.90
41939;DHT22;23057;48.554;14.454;2024-01-06T06:48:25;2.50;99.90
41939;DHT22;23057;48.554;14.454;2024-01-06T06:50:56;2.50;99.90
41939;DHT22;23057;48.554;14.454;2024-01-06T06:53:27;2.50;99.90
41939;DHT22;23057;48.554;14.454;2024-01-06T06:55:58;2.50;99.90
41939;DHT22;23057;48.554;14.454;2024-01-06T06:58:29;2.50;99.90
41939;DHT22;23057;48.554;14.454;2024-01-06T07:00:59;2.50;99.90
41939;DHT22;23057;48.554;14.454;2024-01-06T07:03:31;2.50;99.90
41939;DHT22;23057;48.554;14.454;2024-01-06T07:06:01;2.50;99.90
41939;DHT22;23057;48.554;14.454;2024-01-06T07:08:32;2.50;99.90
41939;DHT22;23057;48.554;14.454;2024-01-06T07:11:03;2.50;99.90
41939;DHT22;23057;48.554;14.454;2024-01-06T07:13:34;2.50;99.90
41939;DHT22;23057;48.554;14.454;2024-01-06T07:16:06;2.50;99.90
41939;DHT22;23057;48.554;14.454;2024-01-06T07:18:37;2.40;99.90
41939;DHT22;23057;48.554;14.454;2024-01-06T07:21:08;2.50;99.90
41939;DHT22;23057;48.554;14.454;2024-01-06T07:23:39;2.50;99.90
41939;DHT22;23057;48.554;14.454;2024-01-06T07:26:10;2.50;99.90
41939;DHT22;23057;48.554;14.454;2024-01-06T07:28:41;2.50;99.90
41939;DHT22;23057;48.554;14.454;2024-01-06T07:31:12;2.50;99.90
41939;DHT22;23057;48.554;14.454;2024-01-06T07:33:43;2.50;99.90
41939;DHT22;23057;48.554;14.454;2024-01-06T07:36:14;2.40;99.90
41939;DHT22;23057;48.554;14.454;2024-01-06T07:38:44;2.40;99.90
41939;DHT22;23057;48.554;14.454;2024-01-06T07:41:16;2.50;99.90
41939;DHT22;23057;48.554;14.454;2024-01-06T07:43:47;2.50;99.90
41939;DHT22;23057;48.554;14.454;2024-01-06T07:46:17;2.50;99.90
41939;DHT22;23057;48.554;14.454;2024-01-06T07:48:48;2.40;99.90
41939;DHT22;23057;48.554;14.454;2024-01-06T07:51:19;2.50;99.90
41939;DHT22;23057;48.554;14.454;2024-01-06T07:53:50;2.50;99.90
41939;DHT22;23057;48.554;14.454;2024-01-06T07:56:21;2.50;99.90
41939;DHT22;23057;48.554;14.454;2024-01-06T07:58:52;2.50;99.90
41939;DHT22;23057;48.554;14.454;2024-01-06T08:01:23;2.60;99.90
41939;DHT22;23057;48.554;14.454;2024-01-06T08:03:53;2.50;99.90
41939;DHT22;23057;48.554;14.454;2024-01-06T08:06:24;2.40;99.90
41939;DHT22;23057;48.554;14.454;2024-01-06T08:08:55;2.40;99.90
41939;DHT22;23057;48.554;14.454;2024-01-06T08:11:26;2.40;99.90
41939;DHT22;23057;48.554;14.454;2024-01-06T08:13:57;2.40;99.90
41939;DHT22;23057;48.554;14.454;2024-01-06T08:16:28;2.40;99.90
41939;DHT22;23057;48.554;14.454;2024-01-06T08:18:59;2.40;99.90
41939;DHT22;23057;48.554;14.454;2024-01-06T08:21:30;2.40;99.90
41939;DHT22;23057;48.554;14.454;2024-01-06T08:24:01;2.40;99.90
41939;DHT22;23057;48.554;14.454;2024-01-06T08:26:32;2.50;99.90
41939;DHT22;23057;48.554;14.454;2024-01-06T08:29:03;2.50;99.90
41939;DHT22;23057;48.554;14.454;2024-01-06T08:31:34;2.60;99.90
41939;DHT22;23057;48.554;14.454;2024-01-06T08:34:05;2.60;99.90
41939;DHT22;23057;48.554;14.454;2024-01-06T08:36:38;2.60;99.90
41939;DHT22;23057;48.554;14.454;2024-01-06T08:39:09;2.50;99.90
41939;DHT22;23057;48.554;14.454;2024-01-06T08:41:40;2.60;99.90
41939;DHT22;23057;48.554;14.454;2024-01-06T08:44:10;2.60;99.90
41939;DHT22;23057;48.554;14.454;2024-01-06T08:46:41;2.60;99.90
41939;DHT22;23057;48.554;14.454;2024-01-06T08:49:12;2.60;99.90
41939;DHT22;23057;48.554;14.454;2024-01-06T08:51:43;2.70;99.90
41939;DHT22;23057;48.554;14.454;2024-01-06T08:54:14;2.70;99.90
41939;DHT22;23057;48.554;14.454;2024-01-06T08:56:44;2.70;99.90
41939;DHT22;23057;48.554;14.454;2024-01-06T08:59:15;2.80;99.90
41939;DHT22;23057;48.554;14.454;2024-01-06T09:01:46;2.70;99.90
41939;DHT22;23057;48.554;14.454;2024-01-06T09:04:17;2.70;99.90
41939;DHT22;23057;48.554;14.454;2024-01-06T09:06:48;2.70;99.90
41939;DHT22;23057;48.554;14.454;2024-01-06T09:09:19;2.70;99.90
41939;DHT22;23057;48.554;14.454;2024-01-06T09:11:50;2.80;99.90
41939;DHT22;23057;48.554;14.454;2024-01-06T09:14:20;2.80;99.90
41939;DHT22;23057;48.554;14.454;2024-01-06T09:16:51;2.80;99.90
41939;DHT22;23057;48.554;14.454;2024-01-06T09:19:22;2.80;99.90
41939;DHT22;23057;48.554;14.454;2024-01-06T09:21:53;2.90;99.90
41939;DHT22;23057;48.554;14.454;2024-01-06T09:24:25;2.90;99.90
41939;DHT22;23057;48.554;14.454;2024-01-06T09:26:55;3.10;99.90
41939;DHT22;23057;48.554;14.454;2024-01-06T09:29:26;3.00;99.90
41939;DHT22;23057;48.554;14.454;2024-01-06T09:31:57;3.10;99.90
41939;DHT22;23057;48.554;14.454;2024-01-06T09:34:28;3.00;99.90
41939;DHT22;23057;48.554;14.454;2024-01-06T09:36:59;3.10;99.90
41939;DHT22;23057;48.554;14.454;2024-01-06T09:39:30;3.20;99.90
41939;DHT22;23057;48.554;14.454;2024-01-06T09:42:04;3.30;99.90
41939;DHT22;23057;48.554;14.454;2024-01-06T09:44:35;3.30;99.90
41939;DHT22;23057;48.554;14.454;2024-01-06T09:47:06;3.30;99.90
41939;DHT22;23057;48.554;14.454;2024-01-06T09:49:48;3.20;99.90
41939;DHT22;23057;48.554;14.454;2024-01-06T09:52:23;3.30;99.90
41939;DHT22;23057;48.554;14.454;2024-01-06T09:54:56;3.30;99.90
41939;DHT22;23057;48.554;14.454;2024-01-06T09:57:28;3.40;99.90
41939;DHT22;23057;48.554;14.454;2024-01-06T10:00:00;3.30;99.90
41939;DHT22;23057;48.554;14.454;2024-01-06T10:02:31;3.30;99.90
41939;DHT22;23057;48.554;14.454;2024-01-06T10:05:02;3.40;99.90
41939;DHT22;23057;48.554;14.454;2024-01-06T10:07:34;3.40;99.90
41939;DHT22;23057;48.554;14.454;2024-01-06T10:10:07;3.40;99.90
41939;DHT22;23057;48.554;14.454;2024-01-06T10:12:39;3.30;99.90
41939;DHT22;23057;48.554;14.454;2024-01-06T10:15:11;3.30;99.90
41939;DHT22;23057;48.554;14.454;2024-01-06T10:17:43;3.40;99.90
41939;DHT22;23057;48.554;14.454;2024-01-06T10:20:14;3.30;99.90
41939;DHT22;23057;48.554;14.454;2024-01-06T10:22:45;3.30;99.90
41939;DHT22;23057;48.554;14.454;2024-01-06T10:25:16;3.30;99.90
41939;DHT22;23057;48.554;14.454;2024-01-06T10:27:47;3.30;99.90
41939;DHT22;23057;48.554;14.454;2024-01-06T10:30:18;3.30;99.90
41939;DHT22;23057;48.554;14.454;2024-01-06T10:32:49;3.30;99.90
41939;DHT22;23057;48.554;14.454;2024-01-06T10:35:20;3.30;99.90
41939;DHT22;23057;48.554;14.454;2024-01-06T10:37:52;3.40;99.90
41939;DHT22;23057;48.554;14.454;2024-01-06T10:40:22;3.40;99.90
41939;DHT22;23057;48.554;14.454;2024-01-06T10:42:53;3.50;99.90
41939;DHT22;23057;48.554;14.454;2024-01-06T10:45:28;3.60;99.90
41939;DHT22;23057;48.554;14.454;2024-01-06T10:48:00;3.60;99.90
41939;DHT22;23057;48.554;14.454;2024-01-06T10:50:35;3.50;99.90
41939;DHT22;23057;48.554;14.454;2024-01-06T10:53:08;3.50;99.90
41939;DHT22;23057;48.554;14.454;2024-01-06T10:55:41;3.60;99.90
41939;DHT22;23057;48.554;14.454;2024-01-06T10:58:14;3.60;99.90
41939;DHT22;23057;48.554;14.454;2024-01-06T11:00:48;3.70;99.90
41939;DHT22;23057;48.554;14.454;2024-01-06T11:03:20;3.60;99.90
41939;DHT22;23057;48.554;14.454;2024-01-06T11:05:52;3.70;99.90
41939;DHT22;23057;48.554;14.454;2024-01-06T11:08:25;3.70;99.90
41939;DHT22;23057;48.554;14.454;2024-01-06T11:10:59;3.70;99.90
41939;DHT22;23057;48.554;14.454;2024-01-06T11:13:30;3.70;99.90
41939;DHT22;23057;48.554;14.454;2024-01-06T11:16:01;3.70;99.90
41939;DHT22;23057;48.554;14.454;2024-01-06T11:18:37;3.70;99.90
41939;DHT22;23057;48.554;14.454;2024-01-06T11:21:22;3.70;99.90
41939;DHT22;23057;48.554;14.454;2024-01-06T11:26:56;3.60;99.90
41939;DHT22;23057;48.554;14.454;2024-01-06T11:29:30;3.60;99.90
41939;DHT22;23057;48.554;14.454;2024-01-06T11:32:24;3.60;99.90
41939;DHT22;23057;48.554;14.454;2024-01-06T11:35:04;3.60;99.90
41939;DHT22;23057;48.554;14.454;2024-01-06T11:42:59;3.50;99.90
41939;DHT22;23057;48.554;14.454;2024-01-06T11:45:42;3.50;99.90
41939;DHT22;23057;48.554;14.454;2024-01-06T11:48:13;3.50;99.90
41939;DHT22;23057;48.554;14.454;2024-01-06T11:50:46;3.50;99.90
41939;DHT22;23057;48.554;14.454;2024-01-06T11:53:17;3.60;99.90
41939;DHT22;23057;48.554;14.454;2024-01-06T11:55:48;3.50;99.90
41939;DHT22;23057;48.554;14.454;2024-01-06T11:58:19;3.50;99.90
41939;DHT22;23057;48.554;14.454;2024-01-06T12:00:56;5.10;99.90
41939;DHT22;23057;48.554;14.454;2024-01-06T12:03:27;4.20;99.90
41939;DHT22;23057;48.554;14.454;2024-01-06T12:06:01;3.90;99.90
41939;DHT22;23057;48.554;14.454;2024-01-06T12:08:33;3.80;99.90
41939;DHT22;23057;48.554;14.454;2024-01-06T12:11:04;3.70;99.90
41939;DHT22;23057;48.554;14.454;2024-01-06T12:13:35;3.60;99.90
41939;DHT22;23057;48.554;14.454;2024-01-06T12:16:06;3.60;99.90
41939;DHT22;23057;48.554;14.454;2024-01-06T12:18:37;3.60;99.90
41939;DHT22;23057;48.554;14.454;2024-01-06T12:21:08;3.50;99.90
41939;DHT22;23057;48.554;14.454;2024-01-06T12:23:39;3.50;99.90
41939;DHT22;23057;48.554;14.454;2024-01-06T12:26:10;3.40;99.90
41939;DHT22;23057;48.554;14.454;2024-01-06T12:28:40;3.50;99.90
41939;DHT22;23057;48.554;14.454;2024-01-06T12:31:12;3.50;99.90
41939;DHT22;23057;48.554;14.454;2024-01-06T12:33:43;3.50;99.90
41939;DHT22;23057;48.554;14.454;2024-01-06T12:36:13;3.50;99.90
41939;DHT22;23057;48.554;14.454;2024-01-06T12:38:45;3.40;99.90
41939;DHT22;23057;48.554;14.454;2024-01-06T12:41:16;3.40;99.90
41939;DHT22;23057;48.554;14.454;2024-01-06T12:43:47;3.40;99.90
41939;DHT22;23057;48.554;14.454;2024-01-06T12:46:18;3.40;99.90
41939;DHT22;23057;48.554;14.454;2024-01-06T12:48:49;3.30;99.90
41939;DHT22;23057;48.554;14.454;2024-01-06T12:51:20;3.30;99.90
41939;DHT22;23057;48.554;14.454;2024-01-06T12:53:51;3.30;99.90
41939;DHT22;23057;48.554;14.454;2024-01-06T12:56:22;3.30;99.90
41939;DHT22;23057;48.554;14.454;2024-01-06T12:58:53;3.30;99.90
41939;DHT22;23057;48.554;14.454;2024-01-06T13:01:24;3.30;99.90
41939;DHT22;23057;48.554;14.454;2024-01-06T13:03:55;3.30;99.90
41939;DHT22;23057;48.554;14.454;2024-01-06T13:06:25;3.40;99.90
41939;DHT22;23057;48.554;14.454;2024-01-06T13:08:57;3.40;99.90
41939;DHT22;23057;48.554;14.454;2024-01-06T13:11:28;3.40;99.90
41939;DHT22;23057;48.554;14.454;2024-01-06T13:13:58;3.40;99.90
41939;DHT22;23057;48.554;14.454;2024-01-06T13:16:29;3.40;99.90
41939;DHT22;23057;48.554;14.454;2024-01-06T13:19:00;3.50;99.90
41939;DHT22;23057;48.554;14.454;2024-01-06T13:21:31;3.50;99.90
41939;DHT22;23057;48.554;14.454;2024-01-06T13:24:02;3.50;99.90
41939;DHT22;23057;48.554;14.454;2024-01-06T13:26:34;3.50;99.90
41939;DHT22;23057;48.554;14.454;2024-01-06T13:29:06;3.50;99.90
41939;DHT22;23057;48.554;14.454;2024-01-06T13:31:37;3.50;99.90
41939;DHT22;23057;48.554;14.454;2024-01-06T13:34:08;3.50;99.90
41939;DHT22;23057;48.554;14.454;2024-01-06T13:36:38;3.50;99.90
41939;DHT22;23057;48.554;14.454;2024-01-06T13:39:09;3.60;99.90
41939;DHT22;23057;48.554;14.454;2024-01-06T13:41:50;3.60;99.90
41939;DHT22;23057;48.554;14.454;2024-01-06T13:44:21;3.60;99.90
41939;DHT22;23057;48.554;14.454;2024-01-06T13:46:53;3.60;99.90
41939;DHT22;23057;48.554;14.454;2024-01-06T13:49:25;3.60;99.90
41939;DHT22;23057;48.554;14.454;2024-01-06T13:51:56;3.60;99.90
41939;DHT22;23057;48.554;14.454;2024-01-06T13:54:27;3.60;99.90
41939;DHT22;23057;48.554;14.454;2024-01-06T13:56:59;3.60;99.90
41939;DHT22;23057;48.554;14.454;2024-01-06T13:59:29;3.60;99.90
41939;DHT22;23057;48.554;14.454;2024-01-06T14:02:00;3.60;99.90
41939;DHT22;23057;48.554;14.454;2024-01-06T14:04:31;3.50;99.90
41939;DHT22;23057;48.554;14.454;2024-01-06T14:07:02;3.50;99.90
41939;DHT22;23057;48.554;14.454;2024-01-06T14:09:35;3.60;99.90
41939;DHT22;23057;48.554;14.454;2024-01-06T14:12:06;3.60;99.90
41939;DHT22;23057;48.554;14.454;2024-01-06T14:14:37;3.50;99.90
41939;DHT22;23057;48.554;14.454;2024-01-06T14:17:08;3.50;99.90
41939;DHT22;23057;48.554;14.454;2024-01-06T14:19:39;3.50;99.90
41939;DHT22;23057;48.554;14.454;2024-01-06T14:22:09;3.50;99.90
41939;DHT22;23057;48.554;14.454;2024-01-06T14:24:40;3.40;99.90
41939;DHT22;23057;48.554;14.454;2024-01-06T14:27:11;3.40;99.90
41939;DHT22;23057;48.554;14.454;2024-01-06T14:29:42;3.30;99.90
41939;DHT22;23057;48.554;14.454;2024-01-06T14:32:13;3.30;99.90
41939;DHT22;23057;48.554;14.454;2024-01-06T14:34:44;3.30;99.90
41939;DHT22;23057;48.554;14.454;2024-01-06T14:37:15;3.30;99.90
41939;DHT22;23057;48.554;14.454;2024-01-06T14:39:46;3.30;99.90
41939;DHT22;23057;48.554;14.454;2024-01-06T14:42:16;3.30;99.90
41939;DHT22;23057;48.554;14.454;2024-01-06T14:44:49;3.20;99.90
41939;DHT22;23057;48.554;14.454;2024-01-06T14:47:20;3.20;99.90
41939;DHT22;23057;48.554;14.454;2024-01-06T14:49:50;3.30;99.90
41939;DHT22;23057;48.554;14.454;2024-01-06T14:52:21;3.30;99.90
41939;DHT22;23057;48.554;14.454;2024-01-06T14:54:52;3.30;99.90
41939;DHT22;23057;48.554;14.454;2024-01-06T14:57:23;3.20;99.90
41939;DHT22;23057;48.554;14.454;2024-01-06T14:59:54;3.20;99.90
41939;DHT22;23057;48.554;14.454;2024-01-06T15:02:25;3.20;99.90
41939;DHT22;23057;48.554;14.454;2024-01-06T15:04:55;3.20;99.90
41939;DHT22;23057;48.554;14.454;2024-01-06T15:07:26;3.20;99.90
41939;DHT22;23057;48.554;14.454;2024-01-06T15:09:59;3.30;99.90
41939;DHT22;23057;48.554;14.454;2024-01-06T15:12:40;3.30;99.90
41939;DHT22;23057;48.554;14.454;2024-01-06T15:15:11;3.30;99.90
41939;DHT22;23057;48.554;14.454;2024-01-06T15:17:43;3.30;99.90
41939;DHT22;23057;48.554;14.454;2024-01-06T15:20:14;3.30;99.90
41939;DHT22;23057;48.554;14.454;2024-01-06T15:22:45;3.30;99.90
41939;DHT22;23057;48.554;14.454;2024-01-06T15:25:15;3.30;99.90
41939;DHT22;23057;48.554;14.454;2024-01-06T15:27:48;3.30;99.90
41939;DHT22;23057;48.554;14.454;2024-01-06T15:30:19;3.30;99.90
41939;DHT22;23057;48.554;14.454;2024-01-06T15:32:50;3.30;99.90
41939;DHT22;23057;48.554;14.454;2024-01-06T15:35:21;3.30;99.90
41939;DHT22;23057;48.554;14.454;2024-01-06T15:37:52;3.30;99.90
41939;DHT22;23057;48.554;14.454;2024-01-06T15:40:22;3.20;99.90
41939;DHT22;23057;48.554;14.454;2024-01-06T15:42:53;3.20;99.90
41939;DHT22;23057;48.554;14.454;2024-01-06T15:45:24;3.20;99.90
41939;DHT22;23057;48.554;14.454;2024-01-06T15:47:55;3.20;99.90
41939;DHT22;23057;48.554;14.454;2024-01-06T15:50:26;3.20;99.90
41939;DHT22;23057;48.554;14.454;2024-01-06T15:52:57;3.20;99.90
41939;DHT22;23057;48.554;14.454;2024-01-06T15:55:28;3.20;99.90
41939;DHT22;23057;48.554;14.454;2024-01-06T15:57:58;3.20;99.90
41939;DHT22;23057;48.554;14.454;2024-01-06T16:00:29;3.20;99.90
41939;DHT22;23057;48.554;14.454;2024-01-06T16:03:00;3.20;99.90